SULAYMANIYAH INTERNATIONAL AIRPORT
  • SulyAir
  • SulyAir
1 1
Arrival

ArrivalsMore >>

Departure

DeparturesMore >>

TAF

TAF ORSU 121700Z 1218/1318 30008KT CAVOK
BECMG 1309/1311 25012KT=

METARs

METAR ORSU 122200Z 33007KT CAVOK 17/M01 Q1013=